sensor_id;sensor_type;location;lat;lon;timestamp;P1;durP1;ratioP1;P2;durP2;ratioP2
57107;SDS011;42987;52.916;6.542;2022-08-19T00:01:43;7.22;;;6.53;;
57107;SDS011;42987;52.916;6.542;2022-08-19T00:04:12;8.68;;;7.88;;
57107;SDS011;42987;52.916;6.542;2022-08-19T00:06:43;9.23;;;7.97;;
57107;SDS011;42987;52.916;6.542;2022-08-19T00:09:12;8.40;;;7.53;;
57107;SDS011;42987;52.916;6.542;2022-08-19T00:11:40;11.27;;;9.80;;
57107;SDS011;42987;52.916;6.542;2022-08-19T00:14:07;9.15;;;8.25;;
57107;SDS011;42987;52.916;6.542;2022-08-19T00:16:35;9.60;;;8.60;;
57107;SDS011;42987;52.916;6.542;2022-08-19T00:19:04;9.27;;;6.75;;
57107;SDS011;42987;52.916;6.542;2022-08-19T00:21:33;9.63;;;7.88;;
57107;SDS011;42987;52.916;6.542;2022-08-19T00:24:03;7.32;;;6.63;;
57107;SDS011;42987;52.916;6.542;2022-08-19T00:26:29;6.38;;;5.78;;
57107;SDS011;42987;52.916;6.542;2022-08-19T00:28:55;9.43;;;7.10;;
57107;SDS011;42987;52.916;6.542;2022-08-19T00:31:21;7.03;;;5.63;;
57107;SDS011;42987;52.916;6.542;2022-08-19T00:33:47;8.32;;;7.35;;
57107;SDS011;42987;52.916;6.542;2022-08-19T00:36:15;10.43;;;9.32;;
57107;SDS011;42987;52.916;6.542;2022-08-19T00:38:41;9.40;;;7.93;;
57107;SDS011;42987;52.916;6.542;2022-08-19T00:41:09;10.02;;;7.10;;
57107;SDS011;42987;52.916;6.542;2022-08-19T00:43:39;6.82;;;6.13;;
57107;SDS011;42987;52.916;6.542;2022-08-19T00:46:12;8.30;;;6.53;;
57107;SDS011;42987;52.916;6.542;2022-08-19T00:48:40;9.15;;;8.07;;
57107;SDS011;42987;52.916;6.542;2022-08-19T00:51:06;7.65;;;6.55;;
57107;SDS011;42987;52.916;6.542;2022-08-19T00:53:32;9.18;;;7.10;;
57107;SDS011;42987;52.916;6.542;2022-08-19T00:55:59;8.55;;;7.70;;
57107;SDS011;42987;52.916;6.542;2022-08-19T00:58:32;8.60;;;7.70;;
57107;SDS011;42987;52.916;6.542;2022-08-19T01:00:59;8.32;;;7.28;;
57107;SDS011;42987;52.916;6.542;2022-08-19T01:03:29;8.98;;;8.10;;
57107;SDS011;42987;52.916;6.542;2022-08-19T01:05:54;6.65;;;5.90;;
57107;SDS011;42987;52.916;6.542;2022-08-19T01:08:21;6.85;;;5.68;;
57107;SDS011;42987;52.916;6.542;2022-08-19T01:10:49;6.93;;;5.35;;
57107;SDS011;42987;52.916;6.542;2022-08-19T01:13:18;6.78;;;6.03;;
57107;SDS011;42987;52.916;6.542;2022-08-19T01:15:54;8.10;;;7.22;;
57107;SDS011;42987;52.916;6.542;2022-08-19T01:18:22;7.10;;;6.30;;
57107;SDS011;42987;52.916;6.542;2022-08-19T01:20:54;6.80;;;5.30;;
57107;SDS011;42987;52.916;6.542;2022-08-19T01:23:23;8.02;;;6.40;;
57107;SDS011;42987;52.916;6.542;2022-08-19T01:26:08;7.35;;;6.55;;
57107;SDS011;42987;52.916;6.542;2022-08-19T01:28:39;8.88;;;6.18;;
57107;SDS011;42987;52.916;6.542;2022-08-19T01:31:07;7.00;;;6.20;;
57107;SDS011;42987;52.916;6.542;2022-08-19T01:33:40;7.97;;;6.45;;
57107;SDS011;42987;52.916;6.542;2022-08-19T01:36:10;8.18;;;6.63;;
57107;SDS011;42987;52.916;6.542;2022-08-19T01:38:39;15.00;;;9.60;;
57107;SDS011;42987;52.916;6.542;2022-08-19T01:41:08;6.72;;;6.03;;
57107;SDS011;42987;52.916;6.542;2022-08-19T01:43:39;7.43;;;6.72;;
57107;SDS011;42987;52.916;6.542;2022-08-19T01:46:08;7.47;;;6.78;;
57107;SDS011;42987;52.916;6.542;2022-08-19T01:48:38;7.50;;;6.80;;
57107;SDS011;42987;52.916;6.542;2022-08-19T01:51:09;7.50;;;6.70;;
57107;SDS011;42987;52.916;6.542;2022-08-19T01:53:39;10.85;;;8.63;;
57107;SDS011;42987;52.916;6.542;2022-08-19T01:56:08;8.82;;;7.95;;
57107;SDS011;42987;52.916;6.542;2022-08-19T01:58:35;8.47;;;7.67;;
57107;SDS011;42987;52.916;6.542;2022-08-19T02:01:05;7.47;;;6.85;;
57107;SDS011;42987;52.916;6.542;2022-08-19T02:03:32;7.38;;;6.60;;
57107;SDS011;42987;52.916;6.542;2022-08-19T02:06:00;7.65;;;6.95;;
57107;SDS011;42987;52.916;6.542;2022-08-19T02:08:28;9.18;;;8.27;;
57107;SDS011;42987;52.916;6.542;2022-08-19T02:10:55;8.68;;;7.88;;
57107;SDS011;42987;52.916;6.542;2022-08-19T02:13:22;9.02;;;8.18;;
57107;SDS011;42987;52.916;6.542;2022-08-19T02:15:51;9.82;;;8.25;;
57107;SDS011;42987;52.916;6.542;2022-08-19T02:18:17;9.75;;;8.73;;
57107;SDS011;42987;52.916;6.542;2022-08-19T02:20:43;11.68;;;9.82;;
57107;SDS011;42987;52.916;6.542;2022-08-19T02:23:10;10.20;;;9.20;;
57107;SDS011;42987;52.916;6.542;2022-08-19T02:25:37;12.48;;;11.27;;
57107;SDS011;42987;52.916;6.542;2022-08-19T02:30:49;11.98;;;10.77;;
57107;SDS011;42987;52.916;6.542;2022-08-19T02:33:15;9.25;;;8.30;;
57107;SDS011;42987;52.916;6.542;2022-08-19T02:35:42;8.43;;;7.50;;
57107;SDS011;42987;52.916;6.542;2022-08-19T02:38:09;7.80;;;7.10;;
57107;SDS011;42987;52.916;6.542;2022-08-19T02:40:56;9.60;;;8.20;;
57107;SDS011;42987;52.916;6.542;2022-08-19T02:43:24;8.13;;;7.43;;
57107;SDS011;42987;52.916;6.542;2022-08-19T02:45:55;12.52;;;10.48;;
57107;SDS011;42987;52.916;6.542;2022-08-19T02:48:21;8.40;;;7.60;;
57107;SDS011;42987;52.916;6.542;2022-08-19T02:50:49;13.15;;;11.73;;
57107;SDS011;42987;52.916;6.542;2022-08-19T02:53:21;10.55;;;9.65;;
57107;SDS011;42987;52.916;6.542;2022-08-19T02:58:36;14.98;;;12.45;;
57107;SDS011;42987;52.916;6.542;2022-08-19T03:01:05;15.05;;;13.55;;
57107;SDS011;42987;52.916;6.542;2022-08-19T03:03:31;14.23;;;12.85;;
57107;SDS011;42987;52.916;6.542;2022-08-19T03:06:08;13.40;;;12.13;;
57107;SDS011;42987;52.916;6.542;2022-08-19T03:08:39;13.55;;;12.25;;
57107;SDS011;42987;52.916;6.542;2022-08-19T03:11:12;13.77;;;12.43;;
57107;SDS011;42987;52.916;6.542;2022-08-19T03:13:42;20.80;;;17.35;;
57107;SDS011;42987;52.916;6.542;2022-08-19T03:16:11;14.23;;;12.75;;
57107;SDS011;42987;52.916;6.542;2022-08-19T03:18:37;65.03;;;24.85;;
57107;SDS011;42987;52.916;6.542;2022-08-19T03:21:04;75.20;;;25.55;;
57107;SDS011;42987;52.916;6.542;2022-08-19T03:23:33;45.60;;;21.90;;
57107;SDS011;42987;52.916;6.542;2022-08-19T03:26:02;34.28;;;19.75;;
57107;SDS011;42987;52.916;6.542;2022-08-19T03:28:29;14.65;;;13.15;;
57107;SDS011;42987;52.916;6.542;2022-08-19T03:31:15;26.30;;;18.85;;
57107;SDS011;42987;52.916;6.542;2022-08-19T03:33:42;46.20;;;21.05;;
57107;SDS011;42987;52.916;6.542;2022-08-19T03:36:10;26.33;;;19.15;;
57107;SDS011;42987;52.916;6.542;2022-08-19T03:38:41;18.80;;;15.27;;
57107;SDS011;42987;52.916;6.542;2022-08-19T03:41:10;25.45;;;18.13;;
57107;SDS011;42987;52.916;6.542;2022-08-19T03:43:39;18.20;;;14.65;;
57107;SDS011;42987;52.916;6.542;2022-08-19T03:46:08;13.48;;;12.27;;
57107;SDS011;42987;52.916;6.542;2022-08-19T03:48:40;13.85;;;12.45;;
57107;SDS011;42987;52.916;6.542;2022-08-19T03:51:19;15.05;;;13.65;;
57107;SDS011;42987;52.916;6.542;2022-08-19T03:53:51;14.50;;;13.10;;
57107;SDS011;42987;52.916;6.542;2022-08-19T03:56:19;12.93;;;11.73;;
57107;SDS011;42987;52.916;6.542;2022-08-19T03:58:45;11.30;;;10.15;;
57107;SDS011;42987;52.916;6.542;2022-08-19T04:01:13;10.35;;;9.38;;
57107;SDS011;42987;52.916;6.542;2022-08-19T04:03:42;10.90;;;9.90;;
57107;SDS011;42987;52.916;6.542;2022-08-19T04:06:19;12.05;;;10.75;;
57107;SDS011;42987;52.916;6.542;2022-08-19T04:08:47;11.43;;;10.23;;
57107;SDS011;42987;52.916;6.542;2022-08-19T04:11:20;20.05;;;13.13;;
57107;SDS011;42987;52.916;6.542;2022-08-19T04:13:53;24.52;;;16.20;;
57107;SDS011;42987;52.916;6.542;2022-08-19T04:16:20;20.98;;;15.57;;
57107;SDS011;42987;52.916;6.542;2022-08-19T04:18:48;11.30;;;10.13;;
57107;SDS011;42987;52.916;6.542;2022-08-19T04:21:16;13.57;;;12.30;;
57107;SDS011;42987;52.916;6.542;2022-08-19T04:23:50;21.67;;;18.38;;
57107;SDS011;42987;52.916;6.542;2022-08-19T04:26:22;13.68;;;12.35;;
57107;SDS011;42987;52.916;6.542;2022-08-19T04:28:50;14.77;;;12.50;;
57107;SDS011;42987;52.916;6.542;2022-08-19T04:31:21;13.13;;;11.60;;
57107;SDS011;42987;52.916;6.542;2022-08-19T04:33:58;12.50;;;11.27;;
57107;SDS011;42987;52.916;6.542;2022-08-19T04:36:30;12.98;;;11.70;;
57107;SDS011;42987;52.916;6.542;2022-08-19T04:38:59;16.05;;;13.15;;
57107;SDS011;42987;52.916;6.542;2022-08-19T04:41:27;15.35;;;13.80;;
57107;SDS011;42987;52.916;6.542;2022-08-19T04:44:15;17.55;;;15.77;;
57107;SDS011;42987;52.916;6.542;2022-08-19T04:46:46;19.73;;;16.67;;
57107;SDS011;42987;52.916;6.542;2022-08-19T04:49:17;18.25;;;16.25;;
57107;SDS011;42987;52.916;6.542;2022-08-19T04:51:47;17.95;;;16.05;;
57107;SDS011;42987;52.916;6.542;2022-08-19T04:54:19;31.05;;;20.10;;
57107;SDS011;42987;52.916;6.542;2022-08-19T04:56:52;17.35;;;15.57;;
57107;SDS011;42987;52.916;6.542;2022-08-19T04:59:20;16.77;;;15.18;;
57107;SDS011;42987;52.916;6.542;2022-08-19T05:01:47;27.83;;;18.15;;
57107;SDS011;42987;52.916;6.542;2022-08-19T05:04:15;54.88;;;25.83;;
57107;SDS011;42987;52.916;6.542;2022-08-19T05:06:42;36.60;;;23.38;;
57107;SDS011;42987;52.916;6.542;2022-08-19T05:09:08;18.50;;;16.70;;
57107;SDS011;42987;52.916;6.542;2022-08-19T05:11:35;18.33;;;16.58;;
57107;SDS011;42987;52.916;6.542;2022-08-19T05:14:09;19.98;;;17.90;;
57107;SDS011;42987;52.916;6.542;2022-08-19T05:16:39;21.55;;;19.25;;
57107;SDS011;42987;52.916;6.542;2022-08-19T05:22:08;25.20;;;21.00;;
57107;SDS011;42987;52.916;6.542;2022-08-19T05:24:53;33.35;;;23.92;;
57107;SDS011;42987;52.916;6.542;2022-08-19T05:27:19;54.22;;;28.45;;
57107;SDS011;42987;52.916;6.542;2022-08-19T05:29:45;21.73;;;19.52;;
57107;SDS011;42987;52.916;6.542;2022-08-19T05:32:11;44.75;;;25.38;;
57107;SDS011;42987;52.916;6.542;2022-08-19T05:34:37;44.28;;;25.70;;
57107;SDS011;42987;52.916;6.542;2022-08-19T05:37:04;19.08;;;17.23;;
57107;SDS011;42987;52.916;6.542;2022-08-19T05:39:34;18.40;;;16.60;;
57107;SDS011;42987;52.916;6.542;2022-08-19T05:42:06;19.92;;;17.83;;
57107;SDS011;42987;52.916;6.542;2022-08-19T05:44:38;21.08;;;18.92;;
57107;SDS011;42987;52.916;6.542;2022-08-19T05:47:09;28.88;;;22.88;;
57107;SDS011;42987;52.916;6.542;2022-08-19T05:49:36;28.77;;;24.45;;
57107;SDS011;42987;52.916;6.542;2022-08-19T05:52:04;25.58;;;22.88;;
57107;SDS011;42987;52.916;6.542;2022-08-19T05:54:31;30.17;;;25.88;;
57107;SDS011;42987;52.916;6.542;2022-08-19T05:56:57;29.35;;;25.70;;
57107;SDS011;42987;52.916;6.542;2022-08-19T05:59:23;32.30;;;27.52;;
57107;SDS011;42987;52.916;6.542;2022-08-19T06:01:50;32.05;;;26.60;;
57107;SDS011;42987;52.916;6.542;2022-08-19T06:04:18;31.83;;;27.08;;
57107;SDS011;42987;52.916;6.542;2022-08-19T06:06:45;31.40;;;27.48;;
57107;SDS011;42987;52.916;6.542;2022-08-19T06:09:17;34.35;;;28.13;;
57107;SDS011;42987;52.916;6.542;2022-08-19T06:11:45;30.17;;;25.80;;
57107;SDS011;42987;52.916;6.542;2022-08-19T06:14:18;31.53;;;27.57;;
57107;SDS011;42987;52.916;6.542;2022-08-19T06:16:47;32.05;;;27.67;;
57107;SDS011;42987;52.916;6.542;2022-08-19T06:19:16;33.50;;;27.40;;
57107;SDS011;42987;52.916;6.542;2022-08-19T06:21:44;32.50;;;27.63;;
57107;SDS011;42987;52.916;6.542;2022-08-19T06:24:13;28.00;;;24.92;;
57107;SDS011;42987;52.916;6.542;2022-08-19T06:26:42;31.10;;;27.55;;
57107;SDS011;42987;52.916;6.542;2022-08-19T06:29:10;28.27;;;25.40;;
57107;SDS011;42987;52.916;6.542;2022-08-19T06:31:40;27.83;;;24.63;;
57107;SDS011;42987;52.916;6.542;2022-08-19T06:34:11;28.63;;;25.38;;
57107;SDS011;42987;52.916;6.542;2022-08-19T06:36:38;33.47;;;28.05;;
57107;SDS011;42987;52.916;6.542;2022-08-19T06:39:11;28.95;;;25.73;;
57107;SDS011;42987;52.916;6.542;2022-08-19T06:41:42;30.35;;;25.83;;
57107;SDS011;42987;52.916;6.542;2022-08-19T06:44:11;28.23;;;25.17;;
57107;SDS011;42987;52.916;6.542;2022-08-19T06:46:47;28.17;;;25.15;;
57107;SDS011;42987;52.916;6.542;2022-08-19T06:49:30;27.48;;;24.00;;
57107;SDS011;42987;52.916;6.542;2022-08-19T06:51:56;30.08;;;27.02;;
57107;SDS011;42987;52.916;6.542;2022-08-19T06:54:23;29.23;;;26.45;;
57107;SDS011;42987;52.916;6.542;2022-08-19T06:56:51;29.83;;;26.77;;
57107;SDS011;42987;52.916;6.542;2022-08-19T06:59:19;34.40;;;30.25;;
57107;SDS011;42987;52.916;6.542;2022-08-19T07:01:52;32.55;;;29.08;;
57107;SDS011;42987;52.916;6.542;2022-08-19T07:04:21;28.87;;;26.03;;
57107;SDS011;42987;52.916;6.542;2022-08-19T07:06:49;29.45;;;26.45;;
57107;SDS011;42987;52.916;6.542;2022-08-19T07:09:22;27.83;;;25.08;;
57107;SDS011;42987;52.916;6.542;2022-08-19T07:11:48;25.83;;;23.08;;
57107;SDS011;42987;52.916;6.542;2022-08-19T07:14:16;29.63;;;26.92;;
57107;SDS011;42987;52.916;6.542;2022-08-19T07:16:47;28.25;;;25.33;;
57107;SDS011;42987;52.916;6.542;2022-08-19T07:19:14;25.20;;;22.70;;
57107;SDS011;42987;52.916;6.542;2022-08-19T07:21:41;24.98;;;22.55;;
57107;SDS011;42987;52.916;6.542;2022-08-19T07:24:07;24.50;;;21.98;;
57107;SDS011;42987;52.916;6.542;2022-08-19T07:26:37;24.48;;;22.27;;
57107;SDS011;42987;52.916;6.542;2022-08-19T07:29:04;24.52;;;22.27;;
57107;SDS011;42987;52.916;6.542;2022-08-19T07:31:34;23.98;;;21.67;;
57107;SDS011;42987;52.916;6.542;2022-08-19T07:34:02;23.48;;;21.38;;
57107;SDS011;42987;52.916;6.542;2022-08-19T07:38:59;21.33;;;19.23;;
57107;SDS011;42987;52.916;6.542;2022-08-19T07:41:28;22.00;;;19.88;;
57107;SDS011;42987;52.916;6.542;2022-08-19T07:43:56;21.27;;;19.20;;
57107;SDS011;42987;52.916;6.542;2022-08-19T07:46:24;22.08;;;20.02;;
57107;SDS011;42987;52.916;6.542;2022-08-19T07:48:50;19.85;;;18.05;;
57107;SDS011;42987;52.916;6.542;2022-08-19T07:51:18;19.90;;;18.13;;
57107;SDS011;42987;52.916;6.542;2022-08-19T07:53:45;20.05;;;18.25;;
57107;SDS011;42987;52.916;6.542;2022-08-19T07:56:13;18.70;;;17.10;;
57107;SDS011;42987;52.916;6.542;2022-08-19T07:58:41;18.45;;;16.83;;
57107;SDS011;42987;52.916;6.542;2022-08-19T08:01:13;19.20;;;17.33;;
57107;SDS011;42987;52.916;6.542;2022-08-19T08:03:43;17.95;;;16.33;;
57107;SDS011;42987;52.916;6.542;2022-08-19T08:06:28;17.77;;;16.05;;
57107;SDS011;42987;52.916;6.542;2022-08-19T08:09:12;16.88;;;15.27;;
57107;SDS011;42987;52.916;6.542;2022-08-19T08:11:54;16.45;;;14.95;;
57107;SDS011;42987;52.916;6.542;2022-08-19T08:14:24;14.32;;;12.95;;
57107;SDS011;42987;52.916;6.542;2022-08-19T08:16:53;16.05;;;14.60;;
57107;SDS011;42987;52.916;6.542;2022-08-19T08:19:23;16.17;;;14.70;;
57107;SDS011;42987;52.916;6.542;2022-08-19T08:21:50;15.43;;;13.98;;
57107;SDS011;42987;52.916;6.542;2022-08-19T08:24:18;16.77;;;15.27;;
57107;SDS011;42987;52.916;6.542;2022-08-19T08:26:45;15.75;;;14.15;;
57107;SDS011;42987;52.916;6.542;2022-08-19T08:29:11;16.15;;;14.55;;
57107;SDS011;42987;52.916;6.542;2022-08-19T08:31:42;14.73;;;13.23;;
57107;SDS011;42987;52.916;6.542;2022-08-19T08:34:09;17.83;;;16.13;;
57107;SDS011;42987;52.916;6.542;2022-08-19T08:36:37;19.10;;;17.35;;
57107;SDS011;42987;52.916;6.542;2022-08-19T08:39:08;21.48;;;19.55;;
57107;SDS011;42987;52.916;6.542;2022-08-19T08:41:36;22.13;;;20.05;;
57107;SDS011;42987;52.916;6.542;2022-08-19T08:44:23;19.52;;;17.83;;
57107;SDS011;42987;52.916;6.542;2022-08-19T08:47:02;19.85;;;18.00;;
57107;SDS011;42987;52.916;6.542;2022-08-19T08:52:11;18.08;;;16.48;;
57107;SDS011;42987;52.916;6.542;2022-08-19T08:54:44;19.15;;;17.38;;
57107;SDS011;42987;52.916;6.542;2022-08-19T08:57:13;18.73;;;17.02;;
57107;SDS011;42987;52.916;6.542;2022-08-19T08:59:45;19.02;;;17.40;;
57107;SDS011;42987;52.916;6.542;2022-08-19T09:02:17;20.25;;;18.45;;
57107;SDS011;42987;52.916;6.542;2022-08-19T09:04:43;19.75;;;18.05;;
57107;SDS011;42987;52.916;6.542;2022-08-19T09:07:28;18.95;;;17.13;;
57107;SDS011;42987;52.916;6.542;2022-08-19T09:10:02;19.52;;;17.63;;
57107;SDS011;42987;52.916;6.542;2022-08-19T09:13:00;17.33;;;15.77;;
57107;SDS011;42987;52.916;6.542;2022-08-19T09:15:38;17.73;;;16.17;;
57107;SDS011;42987;52.916;6.542;2022-08-19T09:18:09;17.00;;;15.40;;
57107;SDS011;42987;52.916;6.542;2022-08-19T09:20:38;18.98;;;17.27;;
57107;SDS011;42987;52.916;6.542;2022-08-19T09:23:07;21.15;;;18.98;;
57107;SDS011;42987;52.916;6.542;2022-08-19T09:25:34;19.08;;;17.38;;
57107;SDS011;42987;52.916;6.542;2022-08-19T09:28:00;18.08;;;16.33;;
57107;SDS011;42987;52.916;6.542;2022-08-19T09:30:30;19.60;;;17.87;;
57107;SDS011;42987;52.916;6.542;2022-08-19T09:32:58;18.85;;;17.25;;
57107;SDS011;42987;52.916;6.542;2022-08-19T09:35:28;16.40;;;14.90;;
57107;SDS011;42987;52.916;6.542;2022-08-19T09:37:56;17.70;;;16.00;;
57107;SDS011;42987;52.916;6.542;2022-08-19T09:40:22;16.25;;;14.65;;
57107;SDS011;42987;52.916;6.542;2022-08-19T09:42:49;17.23;;;15.73;;
57107;SDS011;42987;52.916;6.542;2022-08-19T09:45:16;15.25;;;13.85;;
57107;SDS011;42987;52.916;6.542;2022-08-19T09:50:11;14.18;;;12.88;;
57107;SDS011;42987;52.916;6.542;2022-08-19T09:52:38;17.90;;;16.20;;
57107;SDS011;42987;52.916;6.542;2022-08-19T09:55:04;14.65;;;13.27;;
57107;SDS011;42987;52.916;6.542;2022-08-19T09:57:34;14.05;;;12.55;;
57107;SDS011;42987;52.916;6.542;2022-08-19T10:00:04;13.23;;;11.98;;
57107;SDS011;42987;52.916;6.542;2022-08-19T10:02:34;13.40;;;12.10;;
57107;SDS011;42987;52.916;6.542;2022-08-19T10:05:03;15.32;;;13.85;;
57107;SDS011;42987;52.916;6.542;2022-08-19T10:07:48;14.05;;;12.75;;
57107;SDS011;42987;52.916;6.542;2022-08-19T10:10:20;14.75;;;13.43;;
57107;SDS011;42987;52.916;6.542;2022-08-19T10:12:46;15.63;;;13.03;;
57107;SDS011;42987;52.916;6.542;2022-08-19T10:15:13;15.88;;;14.43;;
57107;SDS011;42987;52.916;6.542;2022-08-19T10:17:39;15.63;;;14.18;;
57107;SDS011;42987;52.916;6.542;2022-08-19T10:20:09;16.45;;;14.75;;
57107;SDS011;42987;52.916;6.542;2022-08-19T10:22:38;13.90;;;12.52;;
57107;SDS011;42987;52.916;6.542;2022-08-19T10:25:07;13.27;;;11.98;;
57107;SDS011;42987;52.916;6.542;2022-08-19T10:27:33;8.73;;;7.68;;
57107;SDS011;42987;52.916;6.542;2022-08-19T10:29:59;12.73;;;11.48;;
57107;SDS011;42987;52.916;6.542;2022-08-19T10:32:25;11.52;;;10.50;;
57107;SDS011;42987;52.916;6.542;2022-08-19T10:34:50;10.18;;;9.18;;
57107;SDS011;42987;52.916;6.542;2022-08-19T10:37:17;10.45;;;9.52;;
57107;SDS011;42987;52.916;6.542;2022-08-19T10:39:44;11.60;;;10.50;;
57107;SDS011;42987;52.916;6.542;2022-08-19T10:42:14;14.73;;;13.32;;
57107;SDS011;42987;52.916;6.542;2022-08-19T10:44:41;11.68;;;10.00;;
57107;SDS011;42987;52.916;6.542;2022-08-19T10:47:07;12.43;;;11.13;;
57107;SDS011;42987;52.916;6.542;2022-08-19T10:49:33;12.50;;;11.20;;
57107;SDS011;42987;52.916;6.542;2022-08-19T10:52:19;12.60;;;11.50;;
57107;SDS011;42987;52.916;6.542;2022-08-19T10:55:01;12.55;;;11.40;;
57107;SDS011;42987;52.916;6.542;2022-08-19T10:57:50;11.98;;;9.90;;
57107;SDS011;42987;52.916;6.542;2022-08-19T11:00:17;10.75;;;9.65;;
57107;SDS011;42987;52.916;6.542;2022-08-19T11:02:44;10.18;;;9.10;;
57107;SDS011;42987;52.916;6.542;2022-08-19T11:05:14;10.23;;;9.25;;
57107;SDS011;42987;52.916;6.542;2022-08-19T11:07:42;9.30;;;8.40;;
57107;SDS011;42987;52.916;6.542;2022-08-19T11:10:09;12.27;;;11.07;;
57107;SDS011;42987;52.916;6.542;2022-08-19T11:12:37;12.13;;;10.85;;
57107;SDS011;42987;52.916;6.542;2022-08-19T11:15:05;11.90;;;10.70;;
57107;SDS011;42987;52.916;6.542;2022-08-19T11:17:34;12.10;;;10.82;;
57107;SDS011;42987;52.916;6.542;2022-08-19T11:20:01;11.48;;;10.48;;
57107;SDS011;42987;52.916;6.542;2022-08-19T11:22:29;11.30;;;10.18;;
57107;SDS011;42987;52.916;6.542;2022-08-19T11:24:55;13.18;;;11.88;;
57107;SDS011;42987;52.916;6.542;2022-08-19T11:27:21;11.50;;;10.30;;
57107;SDS011;42987;52.916;6.542;2022-08-19T11:29:47;17.65;;;10.57;;
57107;SDS011;42987;52.916;6.542;2022-08-19T11:32:16;12.70;;;11.40;;
57107;SDS011;42987;52.916;6.542;2022-08-19T11:34:44;12.18;;;10.98;;
57107;SDS011;42987;52.916;6.542;2022-08-19T11:37:10;11.85;;;10.68;;
57107;SDS011;42987;52.916;6.542;2022-08-19T11:39:37;13.35;;;11.93;;
57107;SDS011;42987;52.916;6.542;2022-08-19T11:42:05;13.57;;;12.32;;
57107;SDS011;42987;52.916;6.542;2022-08-19T11:44:53;12.55;;;11.40;;
57107;SDS011;42987;52.916;6.542;2022-08-19T11:47:19;10.32;;;9.35;;
57107;SDS011;42987;52.916;6.542;2022-08-19T11:49:46;13.18;;;11.88;;
57107;SDS011;42987;52.916;6.542;2022-08-19T11:52:15;12.40;;;11.10;;
57107;SDS011;42987;52.916;6.542;2022-08-19T11:54:40;12.77;;;10.73;;
57107;SDS011;42987;52.916;6.542;2022-08-19T11:57:09;8.05;;;7.25;;
57107;SDS011;42987;52.916;6.542;2022-08-19T11:59:35;6.30;;;5.13;;
57107;SDS011;42987;52.916;6.542;2022-08-19T12:02:01;6.97;;;5.82;;
57107;SDS011;42987;52.916;6.542;2022-08-19T12:04:26;5.93;;;5.35;;
57107;SDS011;42987;52.916;6.542;2022-08-19T12:06:55;6.97;;;4.37;;
57107;SDS011;42987;52.916;6.542;2022-08-19T12:09:21;6.63;;;5.35;;
57107;SDS011;42987;52.916;6.542;2022-08-19T12:11:47;6.10;;;5.13;;
57107;SDS011;42987;52.916;6.542;2022-08-19T12:14:16;7.30;;;5.05;;
57107;SDS011;42987;52.916;6.542;2022-08-19T12:19:10;8.55;;;7.60;;
57107;SDS011;42987;52.916;6.542;2022-08-19T12:21:39;7.07;;;5.60;;
57107;SDS011;42987;52.916;6.542;2022-08-19T12:24:08;5.90;;;4.65;;
57107;SDS011;42987;52.916;6.542;2022-08-19T12:26:40;4.85;;;4.07;;
57107;SDS011;42987;52.916;6.542;2022-08-19T12:29:07;5.10;;;4.43;;
57107;SDS011;42987;52.916;6.542;2022-08-19T12:31:36;5.18;;;4.65;;
57107;SDS011;42987;52.916;6.542;2022-08-19T12:34:02;6.73;;;4.60;;
57107;SDS011;42987;52.916;6.542;2022-08-19T12:36:31;4.97;;;3.83;;
57107;SDS011;42987;52.916;6.542;2022-08-19T12:38:58;5.68;;;4.38;;
57107;SDS011;42987;52.916;6.542;2022-08-19T12:41:24;6.68;;;5.40;;
57107;SDS011;42987;52.916;6.542;2022-08-19T12:43:50;9.48;;;6.38;;
57107;SDS011;42987;52.916;6.542;2022-08-19T12:46:17;6.97;;;6.28;;
57107;SDS011;42987;52.916;6.542;2022-08-19T12:48:46;7.38;;;5.18;;
57107;SDS011;42987;52.916;6.542;2022-08-19T12:51:17;9.18;;;7.38;;
57107;SDS011;42987;52.916;6.542;2022-08-19T12:53:46;8.00;;;6.47;;
57107;SDS011;42987;52.916;6.542;2022-08-19T12:56:13;10.75;;;8.02;;
57107;SDS011;42987;52.916;6.542;2022-08-19T12:58:40;8.65;;;6.85;;
57107;SDS011;42987;52.916;6.542;2022-08-19T13:01:08;9.40;;;8.02;;
57107;SDS011;42987;52.916;6.542;2022-08-19T13:03:38;7.88;;;7.07;;
57107;SDS011;42987;52.916;6.542;2022-08-19T13:06:05;7.45;;;6.70;;
57107;SDS011;42987;52.916;6.542;2022-08-19T13:08:34;9.55;;;8.10;;
57107;SDS011;42987;52.916;6.542;2022-08-19T13:11:21;8.50;;;7.60;;
57107;SDS011;42987;52.916;6.542;2022-08-19T13:13:50;9.63;;;7.65;;
57107;SDS011;42987;52.916;6.542;2022-08-19T13:16:17;11.10;;;9.27;;
57107;SDS011;42987;52.916;6.542;2022-08-19T13:18:45;8.52;;;7.57;;
57107;SDS011;42987;52.916;6.542;2022-08-19T13:21:12;9.40;;;7.80;;
57107;SDS011;42987;52.916;6.542;2022-08-19T13:23:39;10.93;;;9.80;;
57107;SDS011;42987;52.916;6.542;2022-08-19T13:26:06;10.40;;;9.30;;
57107;SDS011;42987;52.916;6.542;2022-08-19T13:28:34;9.27;;;7.57;;
57107;SDS011;42987;52.916;6.542;2022-08-19T13:31:19;9.07;;;5.65;;
57107;SDS011;42987;52.916;6.542;2022-08-19T13:34:08;5.90;;;5.15;;
57107;SDS011;42987;52.916;6.542;2022-08-19T13:36:35;8.93;;;7.95;;
57107;SDS011;42987;52.916;6.542;2022-08-19T13:39:02;10.75;;;9.50;;
57107;SDS011;42987;52.916;6.542;2022-08-19T13:41:29;10.55;;;9.45;;
57107;SDS011;42987;52.916;6.542;2022-08-19T13:43:57;12.03;;;10.80;;
57107;SDS011;42987;52.916;6.542;2022-08-19T13:46:26;11.07;;;9.80;;
57107;SDS011;42987;52.916;6.542;2022-08-19T13:48:54;13.00;;;11.70;;
57107;SDS011;42987;52.916;6.542;2022-08-19T13:51:21;14.43;;;13.10;;
57107;SDS011;42987;52.916;6.542;2022-08-19T13:53:47;14.80;;;13.20;;
57107;SDS011;42987;52.916;6.542;2022-08-19T13:56:14;16.85;;;13.82;;
57107;SDS011;42987;52.916;6.542;2022-08-19T13:58:41;13.48;;;12.18;;
57107;SDS011;42987;52.916;6.542;2022-08-19T14:01:07;12.52;;;11.23;;
57107;SDS011;42987;52.916;6.542;2022-08-19T14:03:33;12.93;;;11.60;;
57107;SDS011;42987;52.916;6.542;2022-08-19T14:05:59;14.55;;;13.15;;
57107;SDS011;42987;52.916;6.542;2022-08-19T14:08:25;12.77;;;11.57;;
57107;SDS011;42987;52.916;6.542;2022-08-19T14:10:53;18.70;;;16.80;;
57107;SDS011;42987;52.916;6.542;2022-08-19T14:13:19;22.83;;;19.00;;
57107;SDS011;42987;52.916;6.542;2022-08-19T14:15:47;35.28;;;21.73;;
57107;SDS011;42987;52.916;6.542;2022-08-19T14:18:13;28.20;;;24.80;;
57107;SDS011;42987;52.916;6.542;2022-08-19T14:20:40;30.20;;;26.92;;
57107;SDS011;42987;52.916;6.542;2022-08-19T14:23:07;27.83;;;22.90;;
57107;SDS011;42987;52.916;6.542;2022-08-19T14:25:33;30.50;;;25.67;;
57107;SDS011;42987;52.916;6.542;2022-08-19T14:27:59;29.15;;;25.67;;
57107;SDS011;42987;52.916;6.542;2022-08-19T14:30:29;30.42;;;27.15;;
57107;SDS011;42987;52.916;6.542;2022-08-19T14:32:58;31.90;;;28.60;;
57107;SDS011;42987;52.916;6.542;2022-08-19T14:35:28;33.50;;;29.88;;
57107;SDS011;42987;52.916;6.542;2022-08-19T14:37:57;34.17;;;30.50;;
57107;SDS011;42987;52.916;6.542;2022-08-19T14:40:24;30.80;;;27.67;;
57107;SDS011;42987;52.916;6.542;2022-08-19T14:42:53;31.25;;;27.50;;
57107;SDS011;42987;52.916;6.542;2022-08-19T14:45:24;25.75;;;23.02;;
57107;SDS011;42987;52.916;6.542;2022-08-19T14:47:51;26.25;;;23.70;;
57107;SDS011;42987;52.916;6.542;2022-08-19T14:50:17;24.52;;;22.17;;
57107;SDS011;42987;52.916;6.542;2022-08-19T14:52:45;26.77;;;24.23;;
57107;SDS011;42987;52.916;6.542;2022-08-19T14:55:13;23.13;;;20.70;;
57107;SDS011;42987;52.916;6.542;2022-08-19T14:57:40;22.40;;;20.23;;
57107;SDS011;42987;52.916;6.542;2022-08-19T15:00:07;25.38;;;22.77;;